Time;durP1;ratioP1;P1;durP2;ratioP2;P2;SDS_P1;SDS_P2;PMS_P1;PMS_P2;Temp;Humidity;BMP_temperature;BMP_pressure;BME280_temperature;BME280_humidity;BME280_pressure;Samples;Min_cycle;Max_cycle;Signal;HPM_P1;HPM_P2
2023/03/08 00:01:36;;;;;;;8.75;5.50;;;;;;;2.35;100.00;98589.66;5052660;28;20371;-78
2023/03/08 00:04:21;;;;;;;8.90;5.07;;;;;;;2.31;100.00;98603.16;5052646;28;20029;-79
2023/03/08 00:06:54;;;;;;;7.30;5.00;;;;;;;2.17;100.00;98584.16;5052650;28;20581;-78
2023/03/08 00:09:19;;;;;;;10.82;6.03;;;;;;;2.19;100.00;98597.75;5054360;28;20074;-79
2023/03/08 00:11:44;;;;;;;8.88;5.85;;;;;;;2.19;100.00;98609.03;5051950;28;20037;-77
2023/03/08 00:14:10;;;;;;;9.55;5.55;;;;;;;2.11;100.00;98605.78;5052531;28;20552;-77
2023/03/08 00:16:35;;;;;;;10.85;6.22;;;;;;;2.05;100.00;98609.69;5052422;28;20040;-77
2023/03/08 00:19:01;;;;;;;8.25;5.38;;;;;;;2.01;100.00;98615.50;5052461;28;20462;-77
2023/03/08 00:21:26;;;;;;;11.45;6.75;;;;;;;1.95;100.00;98614.59;5052634;28;20033;-78
2023/03/08 00:23:55;;;;;;;11.13;6.63;;;;;;;1.95;100.00;98611.78;5052208;28;20467;-78
2023/03/08 00:26:24;;;;;;;12.10;6.75;;;;;;;1.86;100.00;98621.06;5051629;28;20021;-77
2023/03/08 00:28:51;;;;;;;11.70;6.80;;;;;;;1.78;100.00;98607.78;5051912;28;20068;-78
2023/03/08 00:31:18;;;;;;;12.82;7.72;;;;;;;1.79;100.00;98615.00;5053449;28;20017;-78
2023/03/08 00:33:44;;;;;;;14.13;7.68;;;;;;;1.82;100.00;98623.25;5051789;28;20021;-79
2023/03/08 00:36:15;;;;;;;15.43;8.35;;;;;;;1.55;100.00;98583.97;5052138;28;20502;-78
2023/03/08 00:38:42;;;;;;;13.40;8.15;;;;;;;1.59;100.00;98597.84;5051913;28;20478;-79
2023/03/08 00:41:09;;;;;;;13.30;7.35;;;;;;;1.62;100.00;98616.59;5052635;28;20072;-78
2023/03/08 00:43:42;;;;;;;16.85;8.73;;;;;;;1.67;100.00;98630.03;5051633;28;20032;-79
2023/03/08 00:46:10;;;;;;;10.90;5.93;;;;;;;1.63;100.00;98632.25;5051129;28;20025;-77
2023/03/08 00:48:35;;;;;;;13.10;6.63;;;;;;;1.51;100.00;98636.00;5052175;28;20035;-77
2023/03/08 00:51:02;;;;;;;12.32;6.47;;;;;;;1.45;100.00;98635.88;5053487;28;20194;-78
2023/03/08 00:53:29;;;;;;;14.05;6.65;;;;;;;1.38;100.00;98636.19;5052235;28;20090;-78
2023/03/08 00:55:57;;;;;;;9.63;6.13;;;;;;;1.31;100.00;98639.31;5051703;28;20110;-78
2023/03/08 00:58:26;;;;;;;13.82;6.82;;;;;;;1.24;100.00;98636.84;5051610;28;20082;-79
2023/03/08 01:00:52;;;;;;;12.48;7.05;;;;;;;1.18;100.00;98653.56;5051511;28;20039;-77
2023/03/08 01:03:26;;;;;;;11.88;6.70;;;;;;;1.11;100.00;98656.69;5051941;28;20025;-77
2023/03/08 01:05:54;;;;;;;10.85;6.22;;;;;;;1.06;100.00;98654.50;5053047;28;20021;-78
2023/03/08 01:08:25;;;;;;;13.93;8.15;;;;;;;1.03;100.00;98656.22;5051607;28;20032;-77
2023/03/08 01:10:55;;;;;;;13.70;7.85;;;;;;;1.04;100.00;98657.78;5034798;28;20025;-78
2023/03/08 01:13:23;;;;;;;12.80;7.53;;;;;;;1.09;100.00;98667.63;5035286;28;20025;-77
2023/03/08 01:15:51;;;;;;;15.25;7.97;;;;;;;1.10;100.00;98671.22;5051418;28;20517;-77
2023/03/08 01:18:18;;;;;;;16.13;8.40;;;;;;;1.06;100.00;98671.38;5051624;28;20382;-77
2023/03/08 01:20:54;;;;;;;13.82;8.18;;;;;;;1.19;100.00;98688.88;5053309;28;20037;-77
2023/03/08 01:23:34;;;;;;;12.07;7.00;;;;;;;1.16;100.00;98687.00;5034821;28;20040;-78
2023/03/08 01:26:07;;;;;;;12.95;6.25;;;;;;;1.09;100.00;98678.88;5052984;28;20086;-78
2023/03/08 01:28:33;;;;;;;10.35;6.60;;;;;;;1.02;100.00;98682.00;5034775;28;20122;-77
2023/03/08 01:31:27;;;;;;;9.90;5.88;;;;;;;1.01;100.00;98686.06;5052922;28;20096;-77
2023/03/08 01:33:54;;;;;;;9.85;5.90;;;;;;;0.97;100.00;98674.19;5051265;28;20025;-75
2023/03/08 01:36:29;;;;;;;7.45;5.32;;;;;;;1.01;100.00;98674.81;5051150;28;20033;-78
2023/03/08 01:39:00;;;;;;;8.88;5.13;;;;;;;0.94;100.00;98669.50;5034615;28;20029;-76
2023/03/08 01:41:29;;;;;;;9.50;5.20;;;;;;;0.95;100.00;98674.66;5050937;28;20140;-77
2023/03/08 01:44:17;;;;;;;11.05;5.35;;;;;;;0.89;100.00;98684.97;5050078;28;20027;-76
2023/03/08 01:46:50;;;;;;;8.25;4.60;;;;;;;0.91;100.00;98682.44;5051535;28;20110;-76
2023/03/08 01:49:32;;;;;;;9.07;4.82;;;;;;;0.87;100.00;98679.00;5051499;28;20504;-76
2023/03/08 01:52:01;;;;;;;11.77;5.40;;;;;;;0.88;100.00;98688.22;5050272;28;20025;-76
2023/03/08 01:54:46;;;;;;;9.27;5.57;;;;;;;0.88;100.00;98694.63;5051537;28;20035;-77
2023/03/08 01:57:24;;;;;;;8.73;4.97;;;;;;;0.87;100.00;98695.09;5033947;28;20075;-77
2023/03/08 01:59:50;;;;;;;10.90;5.55;;;;;;;0.84;100.00;98705.25;5035407;28;20092;-77
2023/03/08 02:02:41;;;;;;;7.95;5.00;;;;;;;0.87;100.00;98718.38;5033838;28;20033;-76
2023/03/08 02:05:13;;;;;;;10.10;5.38;;;;;;;0.78;100.00;98703.53;5033688;28;20452;-77
2023/03/08 02:07:38;;;;;;;11.65;4.90;;;;;;;0.88;100.00;98728.38;5033359;28;20377;-77
2023/03/08 02:10:11;;;;;;;9.25;4.72;;;;;;;0.81;100.00;98720.22;5035460;28;20033;-78
2023/03/08 02:12:39;;;;;;;9.15;4.50;;;;;;;0.83;100.00;98736.63;5017315;28;20024;-77
2023/03/08 02:15:07;;;;;;;6.25;3.78;;;;;;;0.86;100.00;98716.81;5034653;28;20034;-76
2023/03/08 02:17:38;;;;;;;11.93;4.60;;;;;;;0.81;100.00;98711.78;5034830;28;20033;-77
2023/03/08 02:20:34;;;;;;;6.47;3.83;;;;;;;0.80;100.00;98723.53;5035867;28;20475;-77
2023/03/08 02:23:20;;;;;;;6.38;3.60;;;;;;;0.79;100.00;98733.97;5034450;28;20048;-77
2023/03/08 02:25:59;;;;;;;6.15;3.55;;;;;;;0.78;100.00;98731.63;5018584;28;20474;-77
2023/03/08 02:28:29;;;;;;;5.85;3.17;;;;;;;0.70;100.00;98733.97;5034534;28;20040;-77
2023/03/08 02:30:55;;;;;;;5.75;3.60;;;;;;;0.61;100.00;98725.50;5035562;28;20062;-78
2023/03/08 02:33:22;;;;;;;5.15;3.13;;;;;;;0.54;100.00;98720.97;5034413;28;20486;-76
2023/03/08 02:35:49;;;;;;;8.27;3.83;;;;;;;0.59;100.00;98733.63;5034247;28;20127;-77
2023/03/08 02:38:17;;;;;;;6.05;3.65;;;;;;;0.60;100.00;98727.53;5034446;28;20025;-77
2023/03/08 02:40:43;;;;;;;6.35;3.78;;;;;;;0.60;100.00;98735.19;5033626;28;20029;-77
2023/03/08 02:43:10;;;;;;;5.03;3.45;;;;;;;0.59;100.00;98742.03;5035245;28;20433;-76
2023/03/08 02:45:36;;;;;;;10.48;3.90;;;;;;;0.61;100.00;98748.75;5017662;28;20459;-77
2023/03/08 02:48:03;;;;;;;5.38;3.03;;;;;;;0.54;100.00;98754.69;5036019;28;20034;-79
2023/03/08 02:50:30;;;;;;;6.22;3.38;;;;;;;0.51;100.00;98761.22;5034089;28;20033;-76
2023/03/08 02:52:55;;;;;;;3.28;2.63;;;;;;;0.47;100.00;98752.13;5001631;28;20030;-78
2023/03/08 02:55:23;;;;;;;7.38;3.60;;;;;;;0.49;100.00;98760.13;5033867;28;20497;-78
2023/03/08 02:57:49;;;;;;;4.85;3.03;;;;;;;0.47;100.00;98746.53;5034323;28;20040;-78
2023/03/08 03:00:15;;;;;;;3.63;2.25;;;;;;;0.45;100.00;98762.28;5034140;28;20097;-78
2023/03/08 03:02:40;;;;;;;6.90;3.17;;;;;;;0.48;100.00;98764.16;5017112;28;20493;-77
2023/03/08 03:05:09;;;;;;;5.47;2.90;;;;;;;0.49;100.00;98763.72;5034881;28;20018;-77
2023/03/08 03:07:44;;;;;;;4.18;2.83;;;;;;;0.48;100.00;98766.97;5034649;28;20025;-77
2023/03/08 03:10:11;;;;;;;8.30;2.90;;;;;;;0.45;100.00;98763.06;5034801;28;20071;-78
2023/03/08 03:12:45;;;;;;;5.55;2.95;;;;;;;0.49;100.00;98763.72;5033631;28;20113;-77
2023/03/08 03:15:15;;;;;;;6.65;2.80;;;;;;;0.45;100.00;98763.06;5035079;28;20025;-78
2023/03/08 03:17:43;;;;;;;5.90;2.78;;;;;;;0.31;100.00;98746.00;5033630;28;20057;-76
2023/03/08 03:20:10;;;;;;;5.90;2.78;;;;;;;0.51;100.00;98774.50;5034594;28;20025;-77
2023/03/08 03:22:37;;;;;;;5.03;2.35;;;;;;;0.47;100.00;98768.22;5016498;28;20037;-78
2023/03/08 03:25:04;;;;;;;5.82;2.92;;;;;;;0.50;100.00;98784.16;5016873;28;20037;-78
2023/03/08 03:27:30;;;;;;;6.68;3.00;;;;;;;0.49;100.00;98789.00;5000917;28;20033;-77
2023/03/08 03:30:05;;;;;;;6.63;2.72;;;;;;;0.47;100.00;98783.03;5033606;28;20107;-78
2023/03/08 03:32:32;;;;;;;4.78;2.50;;;;;;;0.52;100.00;98784.47;5016993;28;20022;-77
2023/03/08 03:35:01;;;;;;;5.03;3.05;;;;;;;0.52;100.00;98793.69;5000300;28;20033;-76
2023/03/08 03:37:28;;;;;;;3.70;2.38;;;;;;;0.55;100.00;98792.78;5034611;28;20038;-77
2023/03/08 03:39:56;;;;;;;8.38;2.60;;;;;;;0.52;100.00;98796.50;5034465;28;20041;-77
2023/03/08 03:42:23;;;;;;;4.70;2.45;;;;;;;0.54;100.00;98810.09;5034034;28;20106;-77
2023/03/08 03:44:51;;;;;;;6.10;2.50;;;;;;;0.54;100.00;98807.28;5034259;28;20512;-76
2023/03/08 03:47:17;;;;;;;5.75;3.63;;;;;;;0.57;100.00;98815.56;5034517;28;20039;-78
2023/03/08 03:49:44;;;;;;;4.13;2.60;;;;;;;0.58;100.00;98817.13;5035362;28;20064;-78
2023/03/08 03:52:12;;;;;;;4.10;2.55;;;;;;;0.59;100.00;98815.91;5033037;28;20474;-78
2023/03/08 03:54:38;;;;;;;5.07;3.10;;;;;;;0.62;100.00;98805.75;5033082;28;20108;-78
2023/03/08 03:57:03;;;;;;;3.90;2.92;;;;;;;0.67;100.00;98822.00;5032934;28;20032;-79
2023/03/08 03:59:32;;;;;;;4.38;2.35;;;;;;;0.63;100.00;98814.97;5034318;28;20390;-78
2023/03/08 04:01:58;;;;;;;6.10;2.53;;;;;;;0.60;100.00;98820.28;5034238;28;20025;-79
2023/03/08 04:04:23;;;;;;;7.18;2.40;;;;;;;0.56;100.00;98821.66;5032632;28;20144;-79
2023/03/08 04:06:50;;;;;;;6.22;2.97;;;;;;;0.31;100.00;98786.13;5033983;28;20426;-78
2023/03/08 04:09:18;;;;;;;7.35;2.67;;;;;;;0.54;100.00;98827.72;5033948;28;20099;-78
2023/03/08 04:11:44;;;;;;;4.82;2.67;;;;;;;0.52;100.00;98849.09;5032965;28;20467;-79
2023/03/08 04:14:11;;;;;;;9.50;3.90;;;;;;;0.46;100.00;98843.31;5033578;28;20014;-79
2023/03/08 04:16:38;;;;;;;5.80;3.30;;;;;;;0.31;100.00;98831.06;5033640;28;20490;-79
2023/03/08 04:19:14;;;;;;;4.90;3.05;;;;;;;0.47;100.00;98836.44;5032489;28;20521;-78
2023/03/08 04:21:39;;;;;;;6.55;3.90;;;;;;;0.44;100.00;98847.81;5033367;28;20112;-78
2023/03/08 04:24:07;;;;;;;4.75;3.17;;;;;;;0.47;100.00;98838.44;5034049;28;20271;-79
2023/03/08 04:26:35;;;;;;;3.92;2.05;;;;;;;0.45;100.00;98833.31;5032564;28;20072;-78
2023/03/08 04:29:04;;;;;;;5.45;1.92;;;;;;;0.39;100.00;98831.56;5032175;28;20036;-78
2023/03/08 04:31:33;;;;;;;4.05;2.05;;;;;;;0.37;100.00;98829.19;5032325;28;20026;-79
2023/03/08 04:34:01;;;;;;;3.88;2.15;;;;;;;0.27;100.00;98812.78;5032309;28;20029;-80
2023/03/08 04:36:29;;;;;;;5.38;2.05;;;;;;;0.17;100.00;98818.31;5033347;28;20057;-79
2023/03/08 04:38:54;;;;;;;5.82;2.10;;;;;;;0.37;100.00;98845.28;5033498;28;20051;-79
2023/03/08 04:41:22;;;;;;;5.88;2.22;;;;;;;0.29;100.00;98839.16;5033109;28;20115;-78
2023/03/08 04:43:51;;;;;;;4.93;2.90;;;;;;;0.29;100.00;98850.38;5033069;28;20034;-78
2023/03/08 04:46:19;;;;;;;4.75;2.45;;;;;;;0.30;100.00;98846.34;5032005;28;20029;-78
2023/03/08 04:48:46;;;;;;;5.60;2.63;;;;;;;0.32;100.00;98848.69;5033381;28;20471;-79
2023/03/08 04:51:27;;;;;;;8.07;2.88;;;;;;;0.37;100.00;98848.09;5033459;28;20021;-78
2023/03/08 04:53:54;;;;;;;9.20;3.65;;;;;;;0.31;100.00;98849.94;5033242;28;20032;-79
2023/03/08 04:56:21;;;;;;;5.75;3.85;;;;;;;0.31;100.00;98856.34;5032971;28;20033;-78
2023/03/08 04:58:53;;;;;;;8.95;3.00;;;;;;;0.33;100.00;98839.00;5033297;28;20545;-78
2023/03/08 05:01:33;;;;;;;9.48;3.63;;;;;;;0.41;100.00;98851.56;5033047;28;20029;-79
2023/03/08 05:04:02;;;;;;;5.23;3.00;;;;;;;0.35;100.00;98859.00;5033214;28;20390;-79
2023/03/08 05:06:33;;;;;;;6.13;2.92;;;;;;;0.31;100.00;98859.16;5032870;28;20479;-79
2023/03/08 05:08:58;;;;;;;10.45;3.33;;;;;;;0.40;100.00;98855.59;5031621;28;20045;-79
2023/03/08 05:11:26;;;;;;;8.93;3.67;;;;;;;0.34;100.00;98854.63;5031950;28;20451;-79
2023/03/08 05:14:04;;;;;;;9.63;4.40;;;;;;;0.35;100.00;98854.16;5031826;28;20029;-80
2023/03/08 05:16:29;;;;;;;8.98;4.97;;;;;;;0.37;100.00;98851.66;5033056;28;20030;-80
2023/03/08 05:18:55;;;;;;;8.73;4.63;;;;;;;0.42;100.00;98859.50;5017334;28;20066;-79
2023/03/08 05:21:23;;;;;;;11.18;4.63;;;;;;;0.44;100.00;98871.06;5051344;28;20056;-78
2023/03/08 05:23:50;;;;;;;8.40;4.53;;;;;;;0.47;100.00;98872.16;5052566;28;20116;-80
2023/03/08 05:26:16;;;;;;;7.63;4.63;;;;;;;0.47;100.00;98872.16;5053000;28;20078;-78
2023/03/08 05:28:43;;;;;;;11.43;5.65;;;;;;;0.30;100.00;98863.19;5051145;28;20033;-78
2023/03/08 05:31:15;;;;;;;8.05;4.53;;;;;;;0.43;100.00;98877.94;5051852;28;20636;-79
2023/03/08 05:33:41;;;;;;;;;;;;;;;0.46;100.00;98877.03;5057059;28;20021;-79
2023/03/08 05:36:10;;;;;;;8.60;4.68;;;;;;;0.51;100.00;98879.25;5055382;28;20000;-77
2023/03/08 05:38:36;;;;;;;10.15;3.95;;;;;;;0.52;100.00;98897.66;5055174;28;20134;-77
2023/03/08 05:41:06;;;;;;;9.20;4.70;;;;;;;0.56;100.00;98887.09;5054477;28;20487;-79
2023/03/08 05:43:32;;;;;;;9.48;5.22;;;;;;;0.53;100.00;98896.41;5055447;28;20029;-80
2023/03/08 05:46:09;;;;;;;10.57;4.45;;;;;;;0.50;100.00;98890.94;5056390;28;20024;-79
2023/03/08 05:48:36;;;;;;;8.85;4.78;;;;;;;0.53;100.00;98890.78;5045460;28;20048;-78
2023/03/08 05:51:11;;;;;;;7.85;4.15;;;;;;;0.54;100.00;98895.19;5034864;28;20045;-78
2023/03/08 05:53:37;;;;;;;9.70;4.93;;;;;;;0.50;100.00;98880.47;5034892;28;20561;-76
2023/03/08 05:56:08;;;;;;;8.88;4.88;;;;;;;0.63;100.00;98888.03;5018461;28;20060;-77
2023/03/08 05:58:55;;;;;;;14.73;6.05;;;;;;;0.65;100.00;98888.38;5036072;28;20025;-77
2023/03/08 06:01:24;;;;;;;15.60;6.70;;;;;;;0.73;100.00;98890.44;5018269;28;20025;-85
2023/03/08 06:03:59;;;;;;;11.70;6.25;;;;;;;0.74;100.00;98885.59;5035170;28;20045;-82
2023/03/08 06:06:26;;;;;;;12.98;6.30;;;;;;;0.89;100.00;98909.88;5036635;28;20052;-81
2023/03/08 06:08:55;;;;;;;11.88;5.53;;;;;;;0.94;100.00;98906.47;5041590;28;20032;-78
2023/03/08 06:11:21;;;;;;;13.43;6.95;;;;;;;0.99;100.00;98905.09;5051360;28;20044;-79
2023/03/08 06:13:47;;;;;;;13.55;7.28;;;;;;;1.04;100.00;98905.28;5054280;28;20021;-79
2023/03/08 06:16:14;;;;;;;11.40;5.65;;;;;;;1.22;100.00;98909.38;5052695;28;20025;-79
2023/03/08 06:18:41;;;;;;;10.77;5.30;;;;;;;1.28;100.00;98904.72;5034047;28;20045;-81
2023/03/08 06:21:13;;;;;;;9.02;5.07;;;;;;;1.34;100.00;98912.09;5035304;28;20446;-80
2023/03/08 06:23:39;;;;;;;11.73;5.55;;;;;;;1.49;100.00;98912.31;5017739;28;20132;-78
2023/03/08 06:26:06;;;;;;;10.57;4.90;;;;;;;1.74;100.00;98920.50;5035318;28;20060;-78
2023/03/08 06:28:32;;;;;;;9.65;4.55;;;;;;;1.96;100.00;98917.53;5034479;28;20040;-80
2023/03/08 06:30:58;;;;;;;9.60;5.95;;;;;;;2.03;100.00;98917.22;5054343;28;20086;-79
2023/03/08 06:33:29;;;;;;;10.35;5.55;;;;;;;2.08;100.00;98915.81;5055050;28;20025;-79
2023/03/08 06:36:05;;;;;;;13.05;5.47;;;;;;;2.14;100.00;98926.00;5053160;28;20120;-82
2023/03/08 06:38:33;;;;;;;14.68;5.55;;;;;;;2.25;100.00;98934.75;5053120;28;20033;-79
2023/03/08 06:40:58;;;;;;;9.95;5.13;;;;;;;2.27;100.00;98923.81;5053037;28;20067;-79
2023/03/08 06:43:24;;;;;;;11.48;5.40;;;;;;;2.34;100.00;98925.53;5050937;28;20061;-79
2023/03/08 06:45:50;;;;;;;8.57;5.10;;;;;;;2.42;100.00;98920.34;5051274;28;20378;-79
2023/03/08 06:48:16;;;;;;;8.40;5.03;;;;;;;2.50;100.00;98922.38;5051143;28;20025;-79
2023/03/08 06:50:41;;;;;;;9.80;5.00;;;;;;;2.37;100.00;98890.75;5051403;28;20033;-81
2023/03/08 06:53:07;;;;;;;20.70;9.18;;;;;;;2.73;100.00;98941.47;5052160;28;20077;-79
2023/03/08 06:55:36;;;;;;;9.73;5.18;;;;;;;2.71;100.00;98935.50;5035345;28;20444;-79
2023/03/08 06:58:02;;;;;;;12.88;5.03;;;;;;;2.86;100.00;98948.94;5053277;28;20536;-80
2023/03/08 07:00:27;;;;;;;10.43;5.15;;;;;;;2.94;100.00;98936.84;5052415;28;20025;-78
2023/03/08 07:02:53;;;;;;;10.07;4.85;;;;;;;3.10;100.00;98944.94;5053431;28;20041;-78
2023/03/08 07:05:19;;;;;;;8.50;4.82;;;;;;;3.26;100.00;98931.72;5053026;28;20032;-76
2023/03/08 07:07:45;;;;;;;12.50;5.18;;;;;;;3.27;100.00;98917.16;5053504;28;20378;-78
2023/03/08 07:10:13;;;;;;;10.40;4.55;;;;;;;3.53;100.00;98917.47;5054392;28;20060;-78
2023/03/08 07:12:42;;;;;;;13.70;4.72;;;;;;;3.76;100.00;98936.50;5055241;28;20025;-78
2023/03/08 07:15:08;;;;;;;12.07;4.47;;;;;;;4.03;100.00;98944.03;5054787;28;20025;-77
2023/03/08 07:17:34;;;;;;;8.63;4.30;;;;;;;4.39;100.00;98931.66;5054839;28;20040;-79
2023/03/08 07:20:01;;;;;;;6.68;3.55;;;;;;;4.57;100.00;98923.00;5054147;28;20111;-79
2023/03/08 07:22:26;;;;;;;8.23;4.07;;;;;;;4.96;100.00;98935.03;5054268;28;20045;-80
2023/03/08 07:24:53;;;;;;;5.28;3.60;;;;;;;5.03;100.00;98922.53;5036642;28;20048;-78
2023/03/08 07:27:18;;;;;;;7.95;4.03;;;;;;;5.19;100.00;98942.66;5053271;28;20031;-80
2023/03/08 07:29:44;;;;;;;9.25;4.00;;;;;;;5.01;100.00;98931.53;5053245;28;20108;-83
2023/03/08 07:32:11;;;;;;;10.02;4.50;;;;;;;5.07;100.00;98940.91;5054346;28;20094;-77
2023/03/08 07:34:36;;;;;;;7.18;3.42;;;;;;;5.03;100.00;98939.53;5054423;28;20439;-78
2023/03/08 07:37:03;;;;;;;10.52;5.60;;;;;;;4.88;100.00;98919.72;5054527;28;20087;-79
2023/03/08 07:39:30;;;;;;;8.13;4.90;;;;;;;5.14;100.00;98956.72;5053184;28;20384;-80
2023/03/08 07:41:56;;;;;;;12.43;5.35;;;;;;;5.28;100.00;98964.41;5053860;28;20110;-78
2023/03/08 07:44:23;;;;;;;10.05;6.47;;;;;;;5.04;100.00;98919.22;5054309;28;20360;-79
2023/03/08 07:46:49;;;;;;;10.88;6.45;;;;;;;5.25;100.00;98960.50;5054303;28;20108;-80
2023/03/08 07:49:16;;;;;;;40.72;9.73;;;;;;;5.26;100.00;98942.25;5052178;28;20098;-83
2023/03/08 07:51:42;;;;;;;45.20;8.13;;;;;;;5.29;100.00;98955.44;5054470;28;20059;-83
2023/03/08 07:54:11;;;;;;;11.95;5.40;;;;;;;5.25;100.00;98943.50;5054673;28;20484;-80
2023/03/08 07:56:37;;;;;;;11.20;4.97;;;;;;;5.20;100.00;98940.63;5053354;28;20040;-82
2023/03/08 07:59:03;;;;;;;24.13;8.35;;;;;;;5.18;100.00;98943.13;5053118;28;20093;-82
2023/03/08 08:01:31;;;;;;;13.48;5.57;;;;;;;5.42;100.00;98951.50;5054419;28;20040;-78
2023/03/08 08:03:58;;;;;;;9.98;5.00;;;;;;;5.65;100.00;98954.19;5054114;28;20033;-79
2023/03/08 08:06:25;;;;;;;13.52;5.28;;;;;;;5.86;100.00;98960.69;5053143;28;20043;-80
2023/03/08 08:08:50;;;;;;;10.30;6.05;;;;;;;6.10;100.00;98949.94;5053780;28;20039;-80
2023/03/08 08:11:18;;;;;;;29.17;5.85;;;;;;;6.39;100.00;98957.53;5054320;28;20037;-79
2023/03/08 08:13:45;;;;;;;17.05;5.25;;;;;;;6.45;100.00;98944.22;5020058;28;20039;-80
2023/03/08 08:16:12;;;;;;;21.02;6.18;;;;;;;6.22;100.00;98926.13;5053017;28;20033;-79
2023/03/08 08:18:37;;;;;;;15.63;6.05;;;;;;;6.41;100.00;98957.06;5053160;28;20041;-79
2023/03/08 08:21:06;;;;;;;10.90;4.95;;;;;;;6.40;100.00;98958.31;5053625;28;20029;-79
2023/03/08 08:23:35;;;;;;;6.43;4.07;;;;;;;6.46;100.00;98959.19;5052045;28;20466;-78
2023/03/08 08:26:13;;;;;;;10.38;4.30;;;;;;;6.57;100.00;98962.94;5052001;28;20051;-77
2023/03/08 08:28:40;;;;;;;17.45;5.57;;;;;;;6.52;100.00;98960.81;5051978;28;20059;-81
2023/03/08 08:31:20;;;;;;;7.20;5.10;;;;;;;6.66;100.00;98979.81;5053458;28;20033;-80
2023/03/08 08:33:47;;;;;;;14.65;6.63;;;;;;;6.47;100.00;98963.56;5054163;28;20405;-80
2023/03/08 08:36:17;;;;;;;17.33;6.30;;;;;;;6.60;100.00;98972.50;5052501;28;20051;-84
2023/03/08 08:38:44;;;;;;;6.10;4.07;;;;;;;6.49;100.00;98967.47;5035475;28;20028;-82
2023/03/08 08:41:11;;;;;;;7.43;4.10;;;;;;;6.35;100.00;98965.50;5051768;28;20056;-80
2023/03/08 08:43:37;;;;;;;9.60;3.88;;;;;;;6.08;100.00;98963.06;5053533;28;20021;-82
2023/03/08 08:46:11;;;;;;;6.22;3.90;;;;;;;6.13;100.00;98956.69;5052086;28;20113;-81
2023/03/08 08:48:46;;;;;;;24.15;8.27;;;;;;;6.17;100.00;98949.50;5053664;28;20029;-83
2023/03/08 08:51:13;;;;;;;13.20;4.63;;;;;;;6.28;100.00;98957.41;5053427;28;20036;-81
2023/03/08 08:53:39;;;;;;;5.25;3.65;;;;;;;6.31;100.00;98945.06;5051867;28;20048;-82
2023/03/08 08:56:23;;;;;;;6.38;4.13;;;;;;;6.34;100.00;98941.22;5051779;28;20478;-79
2023/03/08 08:58:50;;;;;;;28.95;6.97;;;;;;;6.50;100.00;98943.50;5051712;28;20075;-79
2023/03/08 09:01:26;;;;;;;9.07;4.35;;;;;;;6.70;100.00;98936.22;5052943;28;20037;-78
2023/03/08 09:04:07;;;;;;;14.75;4.00;;;;;;;7.37;100.00;98960.38;5051867;28;20029;-78
2023/03/08 09:06:34;;;;;;;6.93;3.40;;;;;;;8.32;100.00;98967.47;5052474;28;20024;-76
2023/03/08 09:09:00;;;;;;;6.57;4.07;;;;;;;9.28;100.00;98958.69;5052025;28;20458;-78
2023/03/08 09:11:27;;;;;;;7.22;3.72;;;;;;;9.86;97.16;98951.16;5051558;28;20485;-79
2023/03/08 09:13:55;;;;;;;6.32;3.50;;;;;;;10.14;88.70;98968.22;5034809;28;20033;-77
2023/03/08 09:16:26;;;;;;;6.90;3.47;;;;;;;10.40;88.08;98959.31;5051308;28;20085;-78
2023/03/08 09:18:52;;;;;;;10.33;3.87;;;;;;;10.77;86.22;98951.13;5052660;28;20373;-78
2023/03/08 09:21:20;;;;;;;5.70;2.47;;;;;;;11.12;79.35;98953.28;5018470;28;20271;-77
2023/03/08 09:23:49;;;;;;;8.65;3.72;;;;;;;11.14;76.86;98952.75;5052677;28;20083;-77
2023/03/08 09:26:14;;;;;;;8.70;3.30;;;;;;;11.37;74.94;98954.91;5052516;28;20025;-77
2023/03/08 09:28:40;;;;;;;8.95;2.78;;;;;;;11.32;72.34;98950.00;5052384;28;20494;-78
2023/03/08 09:31:11;;;;;;;8.10;3.03;;;;;;;11.15;70.42;98952.22;5052304;28;20044;-79
2023/03/08 09:33:45;;;;;;;6.03;3.03;;;;;;;10.94;69.56;98948.94;5052712;28;20047;-78
2023/03/08 09:36:14;;;;;;;5.63;3.05;;;;;;;11.13;71.80;98943.38;5035297;28;20025;-77
2023/03/08 09:38:41;;;;;;;5.80;3.47;;;;;;;11.78;72.01;98954.03;5055141;28;20029;-79
2023/03/08 09:41:25;;;;;;;6.35;3.58;;;;;;;12.12;67.27;98968.81;5055819;28;20085;-78
2023/03/08 09:44:15;;;;;;;5.55;3.28;;;;;;;12.18;66.13;98958.06;5050945;28;20033;-78
2023/03/08 09:46:48;;;;;;;12.52;4.57;;;;;;;12.25;65.35;98952.53;5052745;28;20414;-78
2023/03/08 09:49:35;;;;;;;4.25;3.60;;;;;;;12.36;64.75;98953.69;5051215;28;20021;-77
2023/03/08 09:52:26;;;;;;;5.95;3.50;;;;;;;12.47;62.92;98950.72;5048790;28;20119;-78
2023/03/08 09:54:51;;;;;;;5.90;3.90;;;;;;;12.54;61.85;98945.19;5052046;28;20108;-78
2023/03/08 09:57:41;;;;;;;6.38;4.55;;;;;;;12.46;59.48;98934.84;5034522;28;20116;-76
2023/03/08 10:00:10;;;;;;;7.57;4.60;;;;;;;12.37;59.40;98938.09;5050813;28;20024;-75
2023/03/08 10:03:17;;;;;;;36.87;7.97;;;;;;;12.50;59.67;98938.22;5035109;28;20036;-74
2023/03/08 10:06:00;;;;;;;8.95;4.40;;;;;;;12.69;58.52;98927.53;5050414;28;20421;-75
2023/03/08 10:08:55;;;;;;;23.27;7.03;;;;;;;12.69;58.37;98922.59;5052064;28;20075;-76
2023/03/08 10:11:35;;;;;;;12.55;5.70;;;;;;;12.71;56.16;98930.63;5052205;28;20052;-79
2023/03/08 10:14:12;;;;;;;9.10;5.90;;;;;;;12.36;56.16;98919.31;5050914;28;20021;-80
2023/03/08 10:16:43;;;;;;;9.02;5.82;;;;;;;12.16;57.32;98932.03;5051091;28;20108;-79
2023/03/08 10:19:33;;;;;;;19.30;6.57;;;;;;;11.80;58.34;98923.59;5054253;28;20533;-79
2023/03/08 10:22:07;;;;;;;8.35;5.55;;;;;;;11.34;60.16;98927.38;5055636;28;20028;-79
2023/03/08 10:24:56;;;;;;;9.60;6.30;;;;;;;10.87;62.41;98926.66;5054274;28;20033;-79
2023/03/08 10:27:26;;;;;;;12.63;7.28;;;;;;;10.49;65.05;98919.81;5055292;28;20031;-79
2023/03/08 10:29:54;;;;;;;11.68;6.15;;;;;;;10.04;67.92;98898.44;5055391;28;20493;-79
2023/03/08 10:32:20;;;;;;;11.05;6.47;;;;;;;9.57;70.64;98898.28;5055396;28;20032;-79
2023/03/08 10:34:47;;;;;;;10.70;6.72;;;;;;;9.10;73.82;98885.84;5054375;28;20067;-79
2023/03/08 10:37:15;;;;;;;14.52;6.57;;;;;;;8.82;76.83;98877.31;5037590;28;20541;-78
2023/03/08 10:39:52;;;;;;;11.50;6.47;;;;;;;8.70;79.40;98874.97;5037765;28;20099;-79
2023/03/08 10:42:27;;;;;;;10.35;6.40;;;;;;;8.60;81.15;98868.75;5054849;28;20041;-79
2023/03/08 10:45:00;;;;;;;11.60;7.93;;;;;;;8.51;81.90;98873.91;5055362;28;20057;-79
2023/03/08 10:47:29;;;;;;;11.30;7.07;;;;;;;8.19;83.54;98847.66;5054368;28;20056;-79
2023/03/08 10:50:10;;;;;;;11.55;7.03;;;;;;;8.11;84.61;98872.19;5055208;28;20033;-78
2023/03/08 10:52:37;;;;;;;10.85;7.30;;;;;;;7.84;86.79;98867.91;5054808;28;20025;-78
2023/03/08 10:55:24;;;;;;;9.73;6.45;;;;;;;7.56;88.95;98869.81;5054951;28;20359;-78
2023/03/08 10:58:35;;;;;;;17.92;8.23;;;;;;;7.26;92.00;98858.00;5055906;28;20029;-79
2023/03/08 11:01:28;;;;;;;14.88;7.07;;;;;;;6.99;94.27;98848.75;5054835;28;20029;-79
2023/03/08 11:04:11;;;;;;;9.95;6.78;;;;;;;6.86;95.84;98836.25;5054899;28;20025;-77
2023/03/08 11:06:38;;;;;;;12.13;6.95;;;;;;;6.85;97.10;98846.03;5053399;28;20036;-80
2023/03/08 11:09:21;;;;;;;11.07;6.72;;;;;;;6.95;96.76;98844.59;5054271;28;20036;-79
2023/03/08 11:11:51;;;;;;;18.85;8.02;;;;;;;6.88;96.50;98830.84;5054659;28;20386;-79
2023/03/08 11:14:19;;;;;;;22.30;7.53;;;;;;;6.78;96.69;98833.06;5053429;28;20029;-76
2023/03/08 11:17:14;;;;;;;15.43;7.35;;;;;;;6.54;97.67;98826.91;5036629;28;20473;-78
2023/03/08 11:20:22;;;;;;;17.15;8.02;;;;;;;6.28;99.96;98817.63;5053233;28;20114;-79
2023/03/08 11:23:06;;;;;;;11.57;6.57;;;;;;;6.10;100.00;98798.84;5054638;28;20039;-78
2023/03/08 11:26:02;;;;;;;8.25;6.28;;;;;;;5.97;100.00;98801.28;5054442;28;20384;-79
2023/03/08 11:29:00;;;;;;;9.02;6.22;;;;;;;5.82;100.00;98798.56;5053702;28;20037;-78
2023/03/08 11:31:52;;;;;;;14.65;7.35;;;;;;;5.63;100.00;98794.44;5054655;28;20024;-79
2023/03/08 11:34:23;;;;;;;10.93;6.32;;;;;;;5.46;100.00;98784.94;5052900;28;20026;-78
2023/03/08 11:37:20;;;;;;;16.85;7.53;;;;;;;5.31;100.00;98779.34;5054283;28;20074;-78
2023/03/08 11:39:58;;;;;;;14.80;6.75;;;;;;;5.22;100.00;98777.44;5054470;28;20062;-78
2023/03/08 11:42:47;;;;;;;7.90;5.22;;;;;;;5.18;100.00;98773.25;5053605;28;20482;-77
2023/03/08 11:45:22;;;;;;;17.58;7.82;;;;;;;5.33;100.00;98768.31;5054409;28;20500;-79
2023/03/08 11:48:04;;;;;;;7.85;5.00;;;;;;;5.55;100.00;98771.41;5053618;28;20175;-81
2023/03/08 11:50:34;;;;;;;15.13;6.75;;;;;;;5.78;100.00;98767.59;5054287;28;20025;-82